sensor_id;sensor_type;location;lat;lon;timestamp;temperature;humidity
6696;DHT22;3385;48.928;10.330;2023-03-14T00:01:57;7.70;99.90
6696;DHT22;3385;48.928;10.330;2023-03-14T00:04:23;7.70;99.90
6696;DHT22;3385;48.928;10.330;2023-03-14T00:06:48;7.70;99.90
6696;DHT22;3385;48.928;10.330;2023-03-14T00:09:17;7.70;99.90
6696;DHT22;3385;48.928;10.330;2023-03-14T00:11:43;7.80;99.90
6696;DHT22;3385;48.928;10.330;2023-03-14T00:14:09;7.90;99.90
6696;DHT22;3385;48.928;10.330;2023-03-14T00:16:35;7.70;99.90
6696;DHT22;3385;48.928;10.330;2023-03-14T00:19:01;7.70;99.90
6696;DHT22;3385;48.928;10.330;2023-03-14T00:21:27;7.70;99.90
6696;DHT22;3385;48.928;10.330;2023-03-14T00:23:52;7.90;99.90
6696;DHT22;3385;48.928;10.330;2023-03-14T00:26:20;7.70;99.90
6696;DHT22;3385;48.928;10.330;2023-03-14T00:28:50;7.80;99.90
6696;DHT22;3385;48.928;10.330;2023-03-14T00:31:16;7.90;99.90
6696;DHT22;3385;48.928;10.330;2023-03-14T00:33:43;7.90;99.90
6696;DHT22;3385;48.928;10.330;2023-03-14T00:36:12;7.70;99.90
6696;DHT22;3385;48.928;10.330;2023-03-14T00:38:39;8.00;99.90
6696;DHT22;3385;48.928;10.330;2023-03-14T00:41:16;10.40;99.90
6696;DHT22;3385;48.928;10.330;2023-03-14T00:43:43;8.00;99.90
6696;DHT22;3385;48.928;10.330;2023-03-14T00:46:09;7.80;99.90
6696;DHT22;3385;48.928;10.330;2023-03-14T00:48:35;7.90;99.90
6696;DHT22;3385;48.928;10.330;2023-03-14T00:51:05;7.90;99.90
6696;DHT22;3385;48.928;10.330;2023-03-14T00:53:35;7.70;99.90
6696;DHT22;3385;48.928;10.330;2023-03-14T00:56:08;7.80;99.90
6696;DHT22;3385;48.928;10.330;2023-03-14T00:58:34;7.80;99.90
6696;DHT22;3385;48.928;10.330;2023-03-14T01:01:08;7.90;99.90
6696;DHT22;3385;48.928;10.330;2023-03-14T01:03:34;7.80;99.90
6696;DHT22;3385;48.928;10.330;2023-03-14T01:06:14;7.90;99.90
6696;DHT22;3385;48.928;10.330;2023-03-14T01:08:41;7.70;99.90
6696;DHT22;3385;48.928;10.330;2023-03-14T01:11:14;7.90;99.90
6696;DHT22;3385;48.928;10.330;2023-03-14T01:13:41;7.70;99.90
6696;DHT22;3385;48.928;10.330;2023-03-14T01:16:09;8.10;99.90
6696;DHT22;3385;48.928;10.330;2023-03-14T01:18:35;7.80;99.90
6696;DHT22;3385;48.928;10.330;2023-03-14T01:21:03;7.50;99.90
6696;DHT22;3385;48.928;10.330;2023-03-14T01:23:29;7.50;99.90
6696;DHT22;3385;48.928;10.330;2023-03-14T01:25:55;7.50;99.90
6696;DHT22;3385;48.928;10.330;2023-03-14T01:28:21;7.50;99.90
6696;DHT22;3385;48.928;10.330;2023-03-14T01:30:46;7.60;99.90
6696;DHT22;3385;48.928;10.330;2023-03-14T01:33:12;7.50;99.90
6696;DHT22;3385;48.928;10.330;2023-03-14T01:35:39;7.60;99.90
6696;DHT22;3385;48.928;10.330;2023-03-14T01:38:05;7.60;99.90
6696;DHT22;3385;48.928;10.330;2023-03-14T01:40:31;7.60;99.90
6696;DHT22;3385;48.928;10.330;2023-03-14T01:43:05;7.60;99.90
6696;DHT22;3385;48.928;10.330;2023-03-14T01:54:30;7.40;99.90
6696;DHT22;3385;48.928;10.330;2023-03-14T01:57:20;7.60;99.90
6696;DHT22;3385;48.928;10.330;2023-03-14T01:59:52;8.00;99.90
6696;DHT22;3385;48.928;10.330;2023-03-14T02:02:19;7.60;99.90
6696;DHT22;3385;48.928;10.330;2023-03-14T02:04:45;7.50;99.90
6696;DHT22;3385;48.928;10.330;2023-03-14T02:07:22;7.50;99.90
6696;DHT22;3385;48.928;10.330;2023-03-14T02:09:50;7.40;99.90
6696;DHT22;3385;48.928;10.330;2023-03-14T02:12:17;7.60;99.90
6696;DHT22;3385;48.928;10.330;2023-03-14T02:14:43;7.70;99.90
6696;DHT22;3385;48.928;10.330;2023-03-14T02:17:14;7.70;99.90
6696;DHT22;3385;48.928;10.330;2023-03-14T02:19:53;7.80;99.90
6696;DHT22;3385;48.928;10.330;2023-03-14T02:22:23;7.30;99.90
6696;DHT22;3385;48.928;10.330;2023-03-14T02:27:33;7.90;99.90
6696;DHT22;3385;48.928;10.330;2023-03-14T02:30:02;7.70;99.90
6696;DHT22;3385;48.928;10.330;2023-03-14T02:32:30;7.70;99.90
6696;DHT22;3385;48.928;10.330;2023-03-14T02:34:58;7.60;99.90
6696;DHT22;3385;48.928;10.330;2023-03-14T02:37:33;7.50;99.90
6696;DHT22;3385;48.928;10.330;2023-03-14T02:40:00;7.80;99.90
6696;DHT22;3385;48.928;10.330;2023-03-14T02:42:26;7.80;99.90
6696;DHT22;3385;48.928;10.330;2023-03-14T02:47:37;7.50;99.90
6696;DHT22;3385;48.928;10.330;2023-03-14T02:50:10;7.50;99.90
6696;DHT22;3385;48.928;10.330;2023-03-14T02:52:38;7.60;99.90
6696;DHT22;3385;48.928;10.330;2023-03-14T02:55:04;7.50;99.90
6696;DHT22;3385;48.928;10.330;2023-03-14T02:57:30;7.60;99.90
6696;DHT22;3385;48.928;10.330;2023-03-14T03:00:00;7.50;99.90
6696;DHT22;3385;48.928;10.330;2023-03-14T03:02:27;7.60;99.90
6696;DHT22;3385;48.928;10.330;2023-03-14T03:04:53;7.40;99.90
6696;DHT22;3385;48.928;10.330;2023-03-14T03:07:19;7.90;99.90
6696;DHT22;3385;48.928;10.330;2023-03-14T03:09:45;7.60;99.90
6696;DHT22;3385;48.928;10.330;2023-03-14T03:12:11;7.40;99.90
6696;DHT22;3385;48.928;10.330;2023-03-14T03:14:36;7.40;99.90
6696;DHT22;3385;48.928;10.330;2023-03-14T03:17:05;7.40;99.90
6696;DHT22;3385;48.928;10.330;2023-03-14T03:19:31;7.40;99.90
6696;DHT22;3385;48.928;10.330;2023-03-14T03:21:57;7.40;99.90
6696;DHT22;3385;48.928;10.330;2023-03-14T03:24:24;7.40;99.90
6696;DHT22;3385;48.928;10.330;2023-03-14T03:26:50;7.40;99.90
6696;DHT22;3385;48.928;10.330;2023-03-14T03:29:17;7.60;99.90
6696;DHT22;3385;48.928;10.330;2023-03-14T03:31:43;7.20;99.90
6696;DHT22;3385;48.928;10.330;2023-03-14T03:34:13;7.60;99.90
6696;DHT22;3385;48.928;10.330;2023-03-14T03:36:39;7.50;99.90
6696;DHT22;3385;48.928;10.330;2023-03-14T03:39:05;7.40;99.90
6696;DHT22;3385;48.928;10.330;2023-03-14T03:41:31;7.40;99.90
6696;DHT22;3385;48.928;10.330;2023-03-14T03:43:57;7.70;99.90
6696;DHT22;3385;48.928;10.330;2023-03-14T03:46:22;7.20;99.90
6696;DHT22;3385;48.928;10.330;2023-03-14T03:48:48;7.20;99.90
6696;DHT22;3385;48.928;10.330;2023-03-14T03:51:19;7.40;99.90
6696;DHT22;3385;48.928;10.330;2023-03-14T03:53:44;7.20;99.90
6696;DHT22;3385;48.928;10.330;2023-03-14T03:56:10;7.30;99.90
6696;DHT22;3385;48.928;10.330;2023-03-14T03:58:36;7.40;99.90
6696;DHT22;3385;48.928;10.330;2023-03-14T04:01:05;7.30;99.90
6696;DHT22;3385;48.928;10.330;2023-03-14T04:03:33;7.30;99.90
6696;DHT22;3385;48.928;10.330;2023-03-14T04:06:05;7.40;99.90
6696;DHT22;3385;48.928;10.330;2023-03-14T04:08:31;7.50;99.90
6696;DHT22;3385;48.928;10.330;2023-03-14T04:10:58;7.60;99.90
6696;DHT22;3385;48.928;10.330;2023-03-14T04:13:25;7.40;99.90
6696;DHT22;3385;48.928;10.330;2023-03-14T04:15:51;7.50;99.90
6696;DHT22;3385;48.928;10.330;2023-03-14T04:18:18;7.50;99.90
6696;DHT22;3385;48.928;10.330;2023-03-14T04:20:44;7.50;99.90
6696;DHT22;3385;48.928;10.330;2023-03-14T04:23:09;7.50;99.90
6696;DHT22;3385;48.928;10.330;2023-03-14T04:25:35;7.30;99.90
6696;DHT22;3385;48.928;10.330;2023-03-14T04:28:01;7.40;99.90
6696;DHT22;3385;48.928;10.330;2023-03-14T04:30:27;5.90;99.90
6696;DHT22;3385;48.928;10.330;2023-03-14T04:32:52;7.40;99.90
6696;DHT22;3385;48.928;10.330;2023-03-14T04:35:18;7.30;99.90
6696;DHT22;3385;48.928;10.330;2023-03-14T04:37:44;7.20;99.90
6696;DHT22;3385;48.928;10.330;2023-03-14T04:40:10;7.40;99.90
6696;DHT22;3385;48.928;10.330;2023-03-14T04:42:36;7.50;99.90
6696;DHT22;3385;48.928;10.330;2023-03-14T04:45:02;7.50;99.90
6696;DHT22;3385;48.928;10.330;2023-03-14T04:47:28;8.20;99.90
6696;DHT22;3385;48.928;10.330;2023-03-14T04:49:54;7.50;99.90
6696;DHT22;3385;48.928;10.330;2023-03-14T04:52:19;7.60;99.90
6696;DHT22;3385;48.928;10.330;2023-03-14T04:54:45;7.50;99.90
6696;DHT22;3385;48.928;10.330;2023-03-14T04:57:11;7.50;99.90
6696;DHT22;3385;48.928;10.330;2023-03-14T04:59:36;7.50;99.90
6696;DHT22;3385;48.928;10.330;2023-03-14T05:02:02;7.60;99.90
6696;DHT22;3385;48.928;10.330;2023-03-14T05:04:28;7.40;99.90
6696;DHT22;3385;48.928;10.330;2023-03-14T05:06:54;7.40;99.90
6696;DHT22;3385;48.928;10.330;2023-03-14T05:09:20;7.50;99.90
6696;DHT22;3385;48.928;10.330;2023-03-14T05:11:46;7.50;99.90
6696;DHT22;3385;48.928;10.330;2023-03-14T05:14:11;7.40;99.90
6696;DHT22;3385;48.928;10.330;2023-03-14T05:16:37;7.60;99.90
6696;DHT22;3385;48.928;10.330;2023-03-14T05:19:03;7.50;99.90
6696;DHT22;3385;48.928;10.330;2023-03-14T05:21:28;7.60;99.90
6696;DHT22;3385;48.928;10.330;2023-03-14T05:23:54;7.60;99.90
6696;DHT22;3385;48.928;10.330;2023-03-14T05:26:20;7.40;99.90
6696;DHT22;3385;48.928;10.330;2023-03-14T05:28:46;7.40;99.90
6696;DHT22;3385;48.928;10.330;2023-03-14T05:31:11;7.30;99.90
6696;DHT22;3385;48.928;10.330;2023-03-14T05:33:37;7.30;99.90
6696;DHT22;3385;48.928;10.330;2023-03-14T05:36:03;7.40;99.90
6696;DHT22;3385;48.928;10.330;2023-03-14T05:38:29;7.40;99.90
6696;DHT22;3385;48.928;10.330;2023-03-14T05:40:54;7.40;99.90
6696;DHT22;3385;48.928;10.330;2023-03-14T05:43:20;7.40;99.90
6696;DHT22;3385;48.928;10.330;2023-03-14T05:45:46;7.60;99.90
6696;DHT22;3385;48.928;10.330;2023-03-14T05:48:11;7.40;99.90
6696;DHT22;3385;48.928;10.330;2023-03-14T05:50:37;7.40;99.90
6696;DHT22;3385;48.928;10.330;2023-03-14T05:53:03;7.20;99.90
6696;DHT22;3385;48.928;10.330;2023-03-14T05:55:29;7.40;99.90
6696;DHT22;3385;48.928;10.330;2023-03-14T05:57:54;7.30;99.90
6696;DHT22;3385;48.928;10.330;2023-03-14T06:00:21;7.20;99.90
6696;DHT22;3385;48.928;10.330;2023-03-14T06:02:47;7.50;99.90
6696;DHT22;3385;48.928;10.330;2023-03-14T06:05:12;7.30;99.90
6696;DHT22;3385;48.928;10.330;2023-03-14T06:07:38;7.30;99.90
6696;DHT22;3385;48.928;10.330;2023-03-14T06:10:04;7.40;99.90
6696;DHT22;3385;48.928;10.330;2023-03-14T06:12:30;7.20;99.90
6696;DHT22;3385;48.928;10.330;2023-03-14T06:14:56;7.30;99.90
6696;DHT22;3385;48.928;10.330;2023-03-14T06:17:22;7.00;99.90
6696;DHT22;3385;48.928;10.330;2023-03-14T06:19:47;7.20;99.90
6696;DHT22;3385;48.928;10.330;2023-03-14T06:22:13;7.30;99.90
6696;DHT22;3385;48.928;10.330;2023-03-14T06:24:39;7.30;99.90
6696;DHT22;3385;48.928;10.330;2023-03-14T06:27:04;7.30;99.90
6696;DHT22;3385;48.928;10.330;2023-03-14T06:29:30;7.40;99.90
6696;DHT22;3385;48.928;10.330;2023-03-14T06:31:56;7.50;99.90
6696;DHT22;3385;48.928;10.330;2023-03-14T06:34:22;7.60;99.90
6696;DHT22;3385;48.928;10.330;2023-03-14T06:36:48;7.60;99.90
6696;DHT22;3385;48.928;10.330;2023-03-14T06:39:13;7.50;99.90
6696;DHT22;3385;48.928;10.330;2023-03-14T06:41:39;7.50;99.90
6696;DHT22;3385;48.928;10.330;2023-03-14T06:44:05;7.50;99.90
6696;DHT22;3385;48.928;10.330;2023-03-14T06:46:30;8.00;99.90
6696;DHT22;3385;48.928;10.330;2023-03-14T06:48:56;7.70;99.90
6696;DHT22;3385;48.928;10.330;2023-03-14T06:51:22;7.70;99.90
6696;DHT22;3385;48.928;10.330;2023-03-14T06:53:48;7.70;99.90
6696;DHT22;3385;48.928;10.330;2023-03-14T06:56:13;7.70;99.90
6696;DHT22;3385;48.928;10.330;2023-03-14T06:58:39;7.80;99.90
6696;DHT22;3385;48.928;10.330;2023-03-14T07:01:06;8.00;99.90
6696;DHT22;3385;48.928;10.330;2023-03-14T07:03:35;8.00;99.90
6696;DHT22;3385;48.928;10.330;2023-03-14T07:06:01;8.00;99.90
6696;DHT22;3385;48.928;10.330;2023-03-14T07:08:27;8.00;99.90
6696;DHT22;3385;48.928;10.330;2023-03-14T07:10:52;8.20;99.90
6696;DHT22;3385;48.928;10.330;2023-03-14T07:13:21;8.30;99.90
6696;DHT22;3385;48.928;10.330;2023-03-14T07:15:46;8.50;99.90
6696;DHT22;3385;48.928;10.330;2023-03-14T07:18:12;8.70;99.90
6696;DHT22;3385;48.928;10.330;2023-03-14T07:20:38;8.70;99.90
6696;DHT22;3385;48.928;10.330;2023-03-14T07:23:04;8.60;99.90
6696;DHT22;3385;48.928;10.330;2023-03-14T07:25:30;8.70;99.90
6696;DHT22;3385;48.928;10.330;2023-03-14T07:27:55;8.80;99.90
6696;DHT22;3385;48.928;10.330;2023-03-14T07:30:22;8.80;99.90
6696;DHT22;3385;48.928;10.330;2023-03-14T07:32:48;9.00;99.90
6696;DHT22;3385;48.928;10.330;2023-03-14T07:35:14;9.00;99.90
6696;DHT22;3385;48.928;10.330;2023-03-14T07:37:39;9.00;99.90
6696;DHT22;3385;48.928;10.330;2023-03-14T07:40:06;9.00;99.90
6696;DHT22;3385;48.928;10.330;2023-03-14T07:42:32;9.00;99.90
6696;DHT22;3385;48.928;10.330;2023-03-14T07:44:58;8.90;99.90
6696;DHT22;3385;48.928;10.330;2023-03-14T07:47:23;8.60;99.90
6696;DHT22;3385;48.928;10.330;2023-03-14T07:49:49;8.70;99.90
6696;DHT22;3385;48.928;10.330;2023-03-14T07:52:15;8.70;99.90
6696;DHT22;3385;48.928;10.330;2023-03-14T07:54:41;9.10;99.90
6696;DHT22;3385;48.928;10.330;2023-03-14T07:57:06;8.60;99.90
6696;DHT22;3385;48.928;10.330;2023-03-14T07:59:32;9.00;99.90
6696;DHT22;3385;48.928;10.330;2023-03-14T08:01:58;9.30;99.90
6696;DHT22;3385;48.928;10.330;2023-03-14T08:04:24;9.60;99.90
6696;DHT22;3385;48.928;10.330;2023-03-14T08:06:49;9.80;99.90
6696;DHT22;3385;48.928;10.330;2023-03-14T08:09:15;9.90;99.90
6696;DHT22;3385;48.928;10.330;2023-03-14T08:11:41;10.10;99.90
6696;DHT22;3385;48.928;10.330;2023-03-14T08:14:07;10.00;99.90
6696;DHT22;3385;48.928;10.330;2023-03-14T08:16:33;10.10;99.90
6696;DHT22;3385;48.928;10.330;2023-03-14T08:18:58;10.30;99.90
6696;DHT22;3385;48.928;10.330;2023-03-14T08:21:24;10.20;99.90
6696;DHT22;3385;48.928;10.330;2023-03-14T08:23:50;10.50;99.90
6696;DHT22;3385;48.928;10.330;2023-03-14T08:26:16;10.70;99.90
6696;DHT22;3385;48.928;10.330;2023-03-14T08:28:42;10.80;99.90
6696;DHT22;3385;48.928;10.330;2023-03-14T08:31:07;11.30;99.90
6696;DHT22;3385;48.928;10.330;2023-03-14T08:33:33;11.30;99.90
6696;DHT22;3385;48.928;10.330;2023-03-14T08:36:00;11.10;99.90
6696;DHT22;3385;48.928;10.330;2023-03-14T08:38:26;11.20;99.90
6696;DHT22;3385;48.928;10.330;2023-03-14T08:40:59;11.30;99.90
6696;DHT22;3385;48.928;10.330;2023-03-14T08:43:27;11.60;99.90
6696;DHT22;3385;48.928;10.330;2023-03-14T08:45:52;11.40;99.90
6696;DHT22;3385;48.928;10.330;2023-03-14T08:48:18;11.60;99.90
6696;DHT22;3385;48.928;10.330;2023-03-14T08:50:45;11.50;99.90
6696;DHT22;3385;48.928;10.330;2023-03-14T08:53:11;11.50;99.90
6696;DHT22;3385;48.928;10.330;2023-03-14T08:55:37;11.60;99.90
6696;DHT22;3385;48.928;10.330;2023-03-14T08:58:02;11.60;99.90
6696;DHT22;3385;48.928;10.330;2023-03-14T09:00:28;11.90;99.90
6696;DHT22;3385;48.928;10.330;2023-03-14T09:02:54;12.50;99.90
6696;DHT22;3385;48.928;10.330;2023-03-14T09:05:19;12.90;99.90
6696;DHT22;3385;48.928;10.330;2023-03-14T09:07:45;13.00;99.90
6696;DHT22;3385;48.928;10.330;2023-03-14T09:10:11;12.80;99.90
6696;DHT22;3385;48.928;10.330;2023-03-14T09:12:37;12.80;99.90
6696;DHT22;3385;48.928;10.330;2023-03-14T09:15:03;12.70;99.90
6696;DHT22;3385;48.928;10.330;2023-03-14T09:17:29;12.70;99.90
6696;DHT22;3385;48.928;10.330;2023-03-14T09:19:55;12.70;99.90
6696;DHT22;3385;48.928;10.330;2023-03-14T09:22:20;12.60;99.90
6696;DHT22;3385;48.928;10.330;2023-03-14T09:24:46;12.50;99.90
6696;DHT22;3385;48.928;10.330;2023-03-14T09:27:12;12.60;99.90
6696;DHT22;3385;48.928;10.330;2023-03-14T09:29:38;12.50;99.90
6696;DHT22;3385;48.928;10.330;2023-03-14T09:32:04;12.40;99.90
6696;DHT22;3385;48.928;10.330;2023-03-14T09:34:30;12.10;99.90
6696;DHT22;3385;48.928;10.330;2023-03-14T09:36:56;12.00;99.90
6696;DHT22;3385;48.928;10.330;2023-03-14T09:39:22;12.00;99.90
6696;DHT22;3385;48.928;10.330;2023-03-14T09:41:50;12.20;99.90
6696;DHT22;3385;48.928;10.330;2023-03-14T09:44:37;12.30;99.90
6696;DHT22;3385;48.928;10.330;2023-03-14T09:47:07;12.60;99.90
6696;DHT22;3385;48.928;10.330;2023-03-14T09:49:40;13.10;99.90
6696;DHT22;3385;48.928;10.330;2023-03-14T09:52:22;12.80;99.90
6696;DHT22;3385;48.928;10.330;2023-03-14T09:54:54;12.50;99.90
6696;DHT22;3385;48.928;10.330;2023-03-14T09:57:23;12.90;99.90
6696;DHT22;3385;48.928;10.330;2023-03-14T09:59:51;12.30;99.90
6696;DHT22;3385;48.928;10.330;2023-03-14T10:02:24;12.70;99.90
6696;DHT22;3385;48.928;10.330;2023-03-14T10:04:51;13.10;99.90
6696;DHT22;3385;48.928;10.330;2023-03-14T10:07:21;12.90;99.90
6696;DHT22;3385;48.928;10.330;2023-03-14T10:09:49;13.70;99.90
6696;DHT22;3385;48.928;10.330;2023-03-14T10:12:17;14.50;99.90
6696;DHT22;3385;48.928;10.330;2023-03-14T10:14:51;14.60;99.90
6696;DHT22;3385;48.928;10.330;2023-03-14T10:17:19;14.70;99.90
6696;DHT22;3385;48.928;10.330;2023-03-14T10:19:53;14.00;99.90
6696;DHT22;3385;48.928;10.330;2023-03-14T10:22:21;13.30;99.90
6696;DHT22;3385;48.928;10.330;2023-03-14T10:24:54;12.60;99.90
6696;DHT22;3385;48.928;10.330;2023-03-14T10:27:27;12.10;99.90
6696;DHT22;3385;48.928;10.330;2023-03-14T10:29:59;12.00;99.90
6696;DHT22;3385;48.928;10.330;2023-03-14T10:32:36;11.80;99.90
6696;DHT22;3385;48.928;10.330;2023-03-14T10:35:21;12.00;99.90
6696;DHT22;3385;48.928;10.330;2023-03-14T10:37:59;13.60;99.90
6696;DHT22;3385;48.928;10.330;2023-03-14T10:40:39;14.20;99.90
6696;DHT22;3385;48.928;10.330;2023-03-14T10:43:11;14.90;99.90
6696;DHT22;3385;48.928;10.330;2023-03-14T10:45:41;15.30;99.90
6696;DHT22;3385;48.928;10.330;2023-03-14T10:53:19;16.30;99.90
6696;DHT22;3385;48.928;10.330;2023-03-14T10:55:45;16.40;99.90
6696;DHT22;3385;48.928;10.330;2023-03-14T10:58:44;16.10;99.90
6696;DHT22;3385;48.928;10.330;2023-03-14T11:10:17;13.70;99.90
6696;DHT22;3385;48.928;10.330;2023-03-14T11:15:40;13.60;99.90
6696;DHT22;3385;48.928;10.330;2023-03-14T11:21:08;15.90;99.90
6696;DHT22;3385;48.928;10.330;2023-03-14T11:28:52;17.60;99.90
6696;DHT22;3385;48.928;10.330;2023-03-14T11:31:30;17.90;99.90
6696;DHT22;3385;48.928;10.330;2023-03-14T11:35:02;18.40;99.90
6696;DHT22;3385;48.928;10.330;2023-03-14T11:37:11;18.30;99.90
6696;DHT22;3385;48.928;10.330;2023-03-14T11:39:41;17.60;99.90
6696;DHT22;3385;48.928;10.330;2023-03-14T11:42:12;17.70;99.90
6696;DHT22;3385;48.928;10.330;2023-03-14T11:44:40;17.20;99.90
6696;DHT22;3385;48.928;10.330;2023-03-14T11:47:29;16.50;99.90
6696;DHT22;3385;48.928;10.330;2023-03-14T11:50:18;15.70;99.90
6696;DHT22;3385;48.928;10.330;2023-03-14T11:53:04;14.70;99.90
6696;DHT22;3385;48.928;10.330;2023-03-14T11:55:37;14.40;99.90
6696;DHT22;3385;48.928;10.330;2023-03-14T11:58:26;14.20;99.90
6696;DHT22;3385;48.928;10.330;2023-03-14T12:00:54;14.00;99.90
6696;DHT22;3385;48.928;10.330;2023-03-14T12:03:39;13.70;99.90
6696;DHT22;3385;48.928;10.330;2023-03-14T12:08:57;13.00;99.90
6696;DHT22;3385;48.928;10.330;2023-03-14T12:13:55;12.20;99.90
6696;DHT22;3385;48.928;10.330;2023-03-14T12:18:50;12.00;99.90
6696;DHT22;3385;48.928;10.330;2023-03-14T12:21:17;12.40;99.90
6696;DHT22;3385;48.928;10.330;2023-03-14T12:23:48;12.00;99.90
6696;DHT22;3385;48.928;10.330;2023-03-14T12:26:17;11.90;99.90
6696;DHT22;3385;48.928;10.330;2023-03-14T12:31:46;10.70;99.90
6696;DHT22;3385;48.928;10.330;2023-03-14T12:44:49;9.20;99.90
6696;DHT22;3385;48.928;10.330;2023-03-14T12:49:49;9.20;99.90
6696;DHT22;3385;48.928;10.330;2023-03-14T12:52:46;8.70;99.90
6696;DHT22;3385;48.928;10.330;2023-03-14T13:00:33;8.90;99.90
6696;DHT22;3385;48.928;10.330;2023-03-14T13:03:20;8.90;99.90
6696;DHT22;3385;48.928;10.330;2023-03-14T13:05:56;8.90;99.90
6696;DHT22;3385;48.928;10.330;2023-03-14T13:08:52;9.00;99.90
6696;DHT22;3385;48.928;10.330;2023-03-14T13:11:23;8.70;99.90
6696;DHT22;3385;48.928;10.330;2023-03-14T13:13:57;8.80;99.90
6696;DHT22;3385;48.928;10.330;2023-03-14T13:16:23;8.60;99.90
6696;DHT22;3385;48.928;10.330;2023-03-14T13:18:51;8.70;99.90
6696;DHT22;3385;48.928;10.330;2023-03-14T13:21:27;8.70;99.90
6696;DHT22;3385;48.928;10.330;2023-03-14T13:24:02;9.00;99.90
6696;DHT22;3385;48.928;10.330;2023-03-14T13:26:41;8.80;99.90
6696;DHT22;3385;48.928;10.330;2023-03-14T13:29:25;8.80;99.90
6696;DHT22;3385;48.928;10.330;2023-03-14T13:31:54;8.60;99.90
6696;DHT22;3385;48.928;10.330;2023-03-14T13:34:28;8.80;99.90
6696;DHT22;3385;48.928;10.330;2023-03-14T13:36:55;8.80;99.90
6696;DHT22;3385;48.928;10.330;2023-03-14T13:39:22;8.80;99.90
6696;DHT22;3385;48.928;10.330;2023-03-14T13:41:51;8.50;99.90
6696;DHT22;3385;48.928;10.330;2023-03-14T13:44:28;8.40;99.90
6696;DHT22;3385;48.928;10.330;2023-03-14T13:46:59;8.20;99.90
6696;DHT22;3385;48.928;10.330;2023-03-14T13:49:27;8.20;99.90
6696;DHT22;3385;48.928;10.330;2023-03-14T13:51:54;8.10;99.90
6696;DHT22;3385;48.928;10.330;2023-03-14T13:54:21;7.90;99.90
6696;DHT22;3385;48.928;10.330;2023-03-14T13:56:48;7.70;99.90
6696;DHT22;3385;48.928;10.330;2023-03-14T13:59:28;7.90;99.90
6696;DHT22;3385;48.928;10.330;2023-03-14T14:01:55;7.70;99.90
6696;DHT22;3385;48.928;10.330;2023-03-14T14:04:23;7.30;99.90
6696;DHT22;3385;48.928;10.330;2023-03-14T14:07:00;7.00;99.90
6696;DHT22;3385;48.928;10.330;2023-03-14T14:09:29;6.80;99.90
6696;DHT22;3385;48.928;10.330;2023-03-14T14:12:01;7.00;99.90
6696;DHT22;3385;48.928;10.330;2023-03-14T14:14:35;6.60;99.90
6696;DHT22;3385;48.928;10.330;2023-03-14T14:17:05;6.80;99.90
6696;DHT22;3385;48.928;10.330;2023-03-14T14:19:34;7.00;99.90
6696;DHT22;3385;48.928;10.330;2023-03-14T14:22:01;7.30;99.90
6696;DHT22;3385;48.928;10.330;2023-03-14T14:24:30;7.60;99.90
6696;DHT22;3385;48.928;10.330;2023-03-14T14:29:35;7.80;99.90
6696;DHT22;3385;48.928;10.330;2023-03-14T14:32:22;7.70;99.90
6696;DHT22;3385;48.928;10.330;2023-03-14T14:34:58;8.20;99.90
6696;DHT22;3385;48.928;10.330;2023-03-14T14:37:35;9.00;99.90
6696;DHT22;3385;48.928;10.330;2023-03-14T14:40:19;8.90;99.90
6696;DHT22;3385;48.928;10.330;2023-03-14T14:42:45;8.50;99.90
6696;DHT22;3385;48.928;10.330;2023-03-14T14:45:16;9.20;99.90
6696;DHT22;3385;48.928;10.330;2023-03-14T14:50:31;8.60;99.90
6696;DHT22;3385;48.928;10.330;2023-03-14T14:53:03;8.10;99.90
6696;DHT22;3385;48.928;10.330;2023-03-14T14:55:43;7.70;99.90
6696;DHT22;3385;48.928;10.330;2023-03-14T15:00:53;7.50;99.90
6696;DHT22;3385;48.928;10.330;2023-03-14T15:03:19;7.50;99.90
6696;DHT22;3385;48.928;10.330;2023-03-14T15:05:45;7.50;99.90
6696;DHT22;3385;48.928;10.330;2023-03-14T15:08:11;7.20;99.90
6696;DHT22;3385;48.928;10.330;2023-03-14T15:10:38;7.50;99.90
6696;DHT22;3385;48.928;10.330;2023-03-14T15:13:03;7.20;99.90
6696;DHT22;3385;48.928;10.330;2023-03-14T15:15:29;5.50;99.90
6696;DHT22;3385;48.928;10.330;2023-03-14T15:17:55;7.10;99.90
6696;DHT22;3385;48.928;10.330;2023-03-14T15:20:21;7.00;99.90
6696;DHT22;3385;48.928;10.330;2023-03-14T15:22:49;7.00;99.90
6696;DHT22;3385;48.928;10.330;2023-03-14T15:25:15;7.00;99.90
6696;DHT22;3385;48.928;10.330;2023-03-14T15:27:41;7.10;99.90
6696;DHT22;3385;48.928;10.330;2023-03-14T15:30:13;7.10;99.90
6696;DHT22;3385;48.928;10.330;2023-03-14T15:32:38;7.70;99.90
6696;DHT22;3385;48.928;10.330;2023-03-14T15:35:04;8.40;99.90
6696;DHT22;3385;48.928;10.330;2023-03-14T15:37:30;8.40;99.90
6696;DHT22;3385;48.928;10.330;2023-03-14T15:39:56;8.80;99.90
6696;DHT22;3385;48.928;10.330;2023-03-14T15:42:25;8.60;99.90
6696;DHT22;3385;48.928;10.330;2023-03-14T15:44:50;8.00;99.90
6696;DHT22;3385;48.928;10.330;2023-03-14T15:47:16;8.20;99.90
6696;DHT22;3385;48.928;10.330;2023-03-14T15:52:46;7.60;99.90
6696;DHT22;3385;48.928;10.330;2023-03-14T15:55:12;7.50;99.90
6696;DHT22;3385;48.928;10.330;2023-03-14T15:57:41;7.40;99.90
6696;DHT22;3385;48.928;10.330;2023-03-14T16:00:14;7.20;99.90
6696;DHT22;3385;48.928;10.330;2023-03-14T16:02:42;7.70;99.90
6696;DHT22;3385;48.928;10.330;2023-03-14T16:05:09;7.10;99.90
6696;DHT22;3385;48.928;10.330;2023-03-14T16:07:35;6.90;99.90
6696;DHT22;3385;48.928;10.330;2023-03-14T16:10:01;6.80;99.90
6696;DHT22;3385;48.928;10.330;2023-03-14T16:12:27;7.10;99.90
6696;DHT22;3385;48.928;10.330;2023-03-14T16:14:52;8.50;99.90
6696;DHT22;3385;48.928;10.330;2023-03-14T16:17:18;8.70;99.90
6696;DHT22;3385;48.928;10.330;2023-03-14T16:19:44;8.90;99.90
6696;DHT22;3385;48.928;10.330;2023-03-14T16:22:10;9.50;99.90
6696;DHT22;3385;48.928;10.330;2023-03-14T16:24:35;9.40;99.90
6696;DHT22;3385;48.928;10.330;2023-03-14T16:27:01;9.20;99.90
6696;DHT22;3385;48.928;10.330;2023-03-14T16:29:27;8.80;99.90
6696;DHT22;3385;48.928;10.330;2023-03-14T16:31:54;8.00;99.90
6696;DHT22;3385;48.928;10.330;2023-03-14T16:34:20;7.60;99.90
6696;DHT22;3385;48.928;10.330;2023-03-14T16:36:45;7.20;99.90
6696;DHT22;3385;48.928;10.330;2023-03-14T16:39:12;7.20;99.90
6696;DHT22;3385;48.928;10.330;2023-03-14T16:41:38;7.00;99.90
6696;DHT22;3385;48.928;10.330;2023-03-14T16:44:04;6.90;99.90
6696;DHT22;3385;48.928;10.330;2023-03-14T16:46:53;6.80;99.90
6696;DHT22;3385;48.928;10.330;2023-03-14T16:49:19;6.70;99.90
6696;DHT22;3385;48.928;10.330;2023-03-14T16:51:44;6.80;99.90
6696;DHT22;3385;48.928;10.330;2023-03-14T16:54:10;6.50;99.90
6696;DHT22;3385;48.928;10.330;2023-03-14T16:56:36;6.50;99.90
6696;DHT22;3385;48.928;10.330;2023-03-14T16:59:02;6.50;99.90
6696;DHT22;3385;48.928;10.330;2023-03-14T17:01:27;6.40;99.90
6696;DHT22;3385;48.928;10.330;2023-03-14T17:03:53;6.20;99.90
6696;DHT22;3385;48.928;10.330;2023-03-14T17:06:24;6.20;99.90
6696;DHT22;3385;48.928;10.330;2023-03-14T17:08:51;6.20;99.90
6696;DHT22;3385;48.928;10.330;2023-03-14T17:11:18;6.20;99.90
6696;DHT22;3385;48.928;10.330;2023-03-14T17:13:47;6.00;99.90
6696;DHT22;3385;48.928;10.330;2023-03-14T17:16:13;6.00;99.90
6696;DHT22;3385;48.928;10.330;2023-03-14T17:18:38;5.80;99.90
6696;DHT22;3385;48.928;10.330;2023-03-14T17:21:05;6.00;99.90
6696;DHT22;3385;48.928;10.330;2023-03-14T17:23:32;5.70;99.90
6696;DHT22;3385;48.928;10.330;2023-03-14T17:25:58;5.70;99.90